Time;durP1;ratioP1;P1;durP2;ratioP2;P2;SDS_P1;SDS_P2;PMS_P1;PMS_P2;Temp;Humidity;BMP_temperature;BMP_pressure;BME280_temperature;BME280_humidity;BME280_pressure;Samples;Min_cycle;Max_cycle;Signal;HPM_P1;HPM_P2
2021/05/08 00:00:25;;;;;;;11.90;7.67;;;;;;;0.37;100.00;96154.38;1044496;28;20369;-68
2021/05/08 00:00:55;;;;;;;12.77;7.23;;;;;;;0.38;100.00;96158.56;1043112;28;20029;-69
2021/05/08 00:01:26;;;;;;;9.90;7.60;;;;;;;0.38;100.00;96163.72;1039036;28;20040;-69
2021/05/08 00:01:59;;;;;;;14.87;7.80;;;;;;;0.36;100.00;96158.75;1043069;28;20044;-69
2021/05/08 00:02:29;;;;;;;12.15;8.13;;;;;;;0.37;100.00;96164.69;1046780;28;20036;-69
2021/05/08 00:03:00;;;;;;;10.33;7.17;;;;;;;0.36;100.00;96160.53;1043644;28;20761;-70
2021/05/08 00:03:31;;;;;;;11.70;7.75;;;;;;;0.35;100.00;96161.53;1046674;28;20039;-70
2021/05/08 00:04:01;;;;;;;11.13;7.67;;;;;;;0.35;100.00;96153.78;1039080;28;20037;-70
2021/05/08 00:04:35;;;;;;;8.60;6.70;;;;;;;0.36;100.00;96158.75;1038748;28;20132;-70
2021/05/08 00:05:05;;;;;;;10.72;7.46;;;;;;;0.35;100.00;96159.72;1034674;28;20091;-69
2021/05/08 00:05:36;;;;;;;9.80;7.50;;;;;;;0.32;100.00;96154.16;1044841;28;20078;-69
2021/05/08 00:06:08;;;;;;;12.30;7.40;;;;;;;0.26;100.00;96147.16;1043411;28;20025;-69
2021/05/08 00:06:38;;;;;;;10.55;6.68;;;;;;;0.31;100.00;96158.53;1039346;28;20029;-69
2021/05/08 00:07:09;;;;;;;10.10;6.90;;;;;;;0.25;100.00;96148.16;1037801;28;20034;-68
2021/05/08 00:07:39;;;;;;;8.73;6.83;;;;;;;0.28;100.00;96153.72;1034879;28;20030;-70
2021/05/08 00:08:10;;;;;;;8.95;6.60;;;;;;;0.32;100.00;96154.16;1038811;28;20029;-68
2021/05/08 00:08:40;;;;;;;16.10;9.47;;;;;;;0.33;100.00;96158.31;1039016;28;20029;-69
2021/05/08 00:09:11;;;;;;;30.23;18.67;;;;;;;0.35;100.00;96161.53;1038903;28;20025;-66
2021/05/08 00:09:41;;;;;;;47.63;26.90;;;;;;;0.34;100.00;96155.56;1038548;28;20014;-69
2021/05/08 00:10:15;;;;;;;49.40;28.93;;;;;;;0.35;100.00;96156.34;1043127;28;20033;-68
2021/05/08 00:10:48;;;;;;;54.65;30.73;;;;;;;0.34;100.00;96159.94;1038883;28;20044;-68
2021/05/08 00:11:21;;;;;;;51.03;29.30;;;;;;;0.32;100.00;96154.16;1037734;28;20451;-67
2021/05/08 00:11:54;;;;;;;66.63;35.83;;;;;;;0.33;100.00;96153.94;1031952;28;20496;-70
2021/05/08 00:12:27;;;;;;;70.57;37.50;;;;;;;0.33;100.00;96150.56;1042992;28;20053;-66
2021/05/08 00:12:57;;;;;;;59.33;32.97;;;;;;;0.33;100.00;96163.47;1042945;28;20017;-69
2021/05/08 00:13:28;;;;;;;46.87;25.80;;;;;;;0.32;100.00;96159.31;1035354;28;20026;-67
2021/05/08 00:13:58;;;;;;;54.00;28.93;;;;;;;0.30;100.00;96162.06;1038541;28;20014;-69
2021/05/08 00:14:29;;;;;;;46.35;24.15;;;;;;;0.29;100.00;96162.25;1027146;28;20019;-70
2021/05/08 00:14:59;;;;;;;47.47;25.27;;;;;;;0.27;100.00;96159.06;1035067;28;20029;-69
2021/05/08 00:15:30;;;;;;;43.73;25.43;;;;;;;0.25;100.00;96151.53;1038227;28;20017;-70
2021/05/08 00:16:00;;;;;;;50.03;26.17;;;;;;;0.23;100.00;96153.47;1030577;28;20015;-70
2021/05/08 00:16:31;;;;;;;41.57;24.47;;;;;;;0.16;100.00;96148.25;1043139;28;20068;-69
2021/05/08 00:17:06;;;;;;;50.50;28.97;;;;;;;0.18;100.00;96159.22;1039179;28;20060;-72
2021/05/08 00:17:37;;;;;;;56.53;31.00;;;;;;;0.14;100.00;96152.84;1042842;28;20115;-67
2021/05/08 00:18:08;;;;;;;57.33;31.83;;;;;;;0.17;100.00;96154.25;1038130;28;20091;-70
2021/05/08 00:18:38;;;;;;;65.93;34.87;;;;;;;0.09;100.00;96136.31;1035036;28;20080;-67
2021/05/08 00:19:08;;;;;;;70.63;38.53;;;;;;;0.20;100.00;96157.25;1039041;28;20418;-70
2021/05/08 00:19:39;;;;;;;80.90;44.20;;;;;;;0.21;100.00;96156.25;1038213;28;20025;-69
2021/05/08 00:20:13;;;;;;;100.73;55.23;;;;;;;0.21;100.00;96153.69;1042959;28;20048;-69
2021/05/08 00:20:44;;;;;;;101.35;56.63;;;;;;;0.22;100.00;96157.84;1035357;28;20033;-70
2021/05/08 00:21:14;;;;;;;95.70;55.40;;;;;;;0.17;100.00;96149.88;1033924;28;20045;-67
2021/05/08 00:21:44;;;;;;;99.65;59.85;;;;;;;0.16;100.00;96145.69;1039392;28;20038;-67
2021/05/08 00:22:15;;;;;;;103.30;62.53;;;;;;;0.25;100.00;96158.47;1034920;28;20030;-69
2021/05/08 00:22:49;;;;;;;111.67;69.40;;;;;;;0.23;100.00;96151.72;1038863;28;20029;-69
2021/05/08 00:23:19;;;;;;;88.18;56.92;;;;;;;0.18;100.00;96138.56;1047132;28;20056;-71
2021/05/08 00:23:50;;;;;;;68.10;45.43;;;;;;;0.28;100.00;96151.16;1039341;28;20040;-68
2021/05/08 00:24:20;;;;;;;54.43;34.60;;;;;;;0.28;100.00;96155.50;1038972;28;20029;-68
2021/05/08 00:24:51;;;;;;;40.50;28.37;;;;;;;0.29;100.00;96154.53;1034217;28;20033;-70
2021/05/08 00:25:21;;;;;;;38.33;24.00;;;;;;;0.31;100.00;96155.16;1030121;28;20037;-68
2021/05/08 00:25:52;;;;;;;30.93;20.67;;;;;;;0.30;100.00;96156.09;1026538;28;20026;-69
2021/05/08 00:26:22;;;;;;;21.50;13.98;;;;;;;0.29;100.00;96152.72;1026625;28;20117;-68
2021/05/08 00:26:52;;;;;;;21.27;12.57;;;;;;;0.27;100.00;96154.72;1027008;28;20549;-68
2021/05/08 00:27:23;;;;;;;17.53;9.53;;;;;;;0.28;100.00;96156.31;1039050;28;20205;-65
2021/05/08 00:27:53;;;;;;;13.13;9.47;;;;;;;0.31;100.00;96158.53;1041729;28;20035;-68
2021/05/08 00:28:24;;;;;;;14.93;8.97;;;;;;;0.31;100.00;96155.16;1034953;28;20022;-67
2021/05/08 00:28:56;;;;;;;11.47;7.57;;;;;;;0.37;100.00;96156.94;1031027;28;20397;-70
2021/05/08 00:29:27;;;;;;;11.40;8.20;;;;;;;0.33;100.00;96148.00;1034739;28;20021;-70
2021/05/08 00:29:57;;;;;;;13.07;8.13;;;;;;;0.38;100.00;96158.56;1038616;28;20030;-70
2021/05/08 00:30:28;;;;;;;14.50;8.97;;;;;;;0.39;100.00;96160.16;1039446;28;20545;-69
2021/05/08 00:30:58;;;;;;;13.03;8.57;;;;;;;0.37;100.00;96159.53;1047587;28;20070;-69
2021/05/08 00:31:28;;;;;;;14.17;9.43;;;;;;;0.30;100.00;96144.00;1048511;28;20012;-70
2021/05/08 00:31:59;;;;;;;15.07;10.37;;;;;;;0.33;100.00;96153.94;1043028;28;20017;-69
2021/05/08 00:32:29;;;;;;;16.03;9.63;;;;;;;0.35;100.00;96153.78;1050336;28;20024;-70
2021/05/08 00:33:00;;;;;;;14.50;9.30;;;;;;;0.32;100.00;96156.72;1049840;28;20016;-71
2021/05/08 00:33:30;;;;;;;12.17;9.17;;;;;;;0.33;100.00;96153.16;1051458;28;20016;-70
2021/05/08 00:34:01;;;;;;;15.20;9.50;;;;;;;0.31;100.00;96161.09;1050999;28;20083;-69
2021/05/08 00:34:31;;;;;;;25.13;10.47;;;;;;;0.30;100.00;96153.53;1051210;28;20008;-69
2021/05/08 00:35:02;;;;;;;15.40;11.43;;;;;;;0.25;100.00;96153.31;1042203;28;20017;-68
2021/05/08 00:35:32;;;;;;;18.20;11.20;;;;;;;0.27;100.00;96162.47;1038660;28;20022;-71
2021/05/08 00:36:07;;;;;;;14.13;10.35;;;;;;;0.18;100.00;96145.50;1038696;28;20526;-70
2021/05/08 00:36:37;;;;;;;14.60;10.23;;;;;;;0.20;100.00;96146.09;1038599;28;20055;-69
2021/05/08 00:37:08;;;;;;;14.37;10.13;;;;;;;0.21;100.00;96150.31;1038859;28;20076;-69
2021/05/08 00:37:39;;;;;;;13.63;9.17;;;;;;;0.19;100.00;96154.84;1042052;28;20020;-71
2021/05/08 00:38:09;;;;;;;13.83;9.63;;;;;;;0.18;100.00;96156.63;1031087;28;20704;-70
2021/05/08 00:38:40;;;;;;;15.57;8.90;;;;;;;0.16;100.00;96147.47;1034871;28;20507;-69
2021/05/08 00:39:10;;;;;;;13.80;9.90;;;;;;;0.10;100.00;96138.72;1034987;28;20013;-65
2021/05/08 00:39:41;;;;;;;16.53;10.63;;;;;;;0.09;100.00;96136.31;1043070;28;20103;-69
2021/05/08 00:40:12;;;;;;;17.93;12.77;;;;;;;0.16;100.00;96145.69;1046062;28;20016;-68
2021/05/08 00:40:42;;;;;;;30.98;20.58;;;;;;;0.17;100.00;96154.25;1038583;28;20071;-70
2021/05/08 00:41:13;;;;;;;50.30;34.13;;;;;;;0.15;100.00;96146.69;1034974;28;20459;-69
2021/05/08 00:41:43;;;;;;;54.33;39.93;;;;;;;0.13;100.00;96151.22;1032349;28;20064;-70
2021/05/08 00:42:14;;;;;;;60.33;42.03;;;;;;;0.15;100.00;96148.47;1038456;28;20026;-70
2021/05/08 00:42:44;;;;;;;52.27;35.87;;;;;;;0.14;100.00;96146.88;1038807;28;20179;-69
2021/05/08 00:43:15;;;;;;;45.80;31.90;;;;;;;0.12;100.00;96149.63;1036882;28;20025;-69
2021/05/08 00:43:46;;;;;;;39.67;28.50;;;;;;;0.13;100.00;96148.63;1039020;28;20025;-70
2021/05/08 00:44:16;;;;;;;31.77;22.40;;;;;;;0.13;100.00;96146.06;1038498;28;20470;-69
2021/05/08 00:44:49;;;;;;;30.75;21.73;;;;;;;0.11;100.00;96139.50;1034886;28;20515;-71
2021/05/08 00:45:20;;;;;;;31.03;19.97;;;;;;;0.09;100.00;96142.25;1042782;28;20028;-72
2021/05/08 00:45:50;;;;;;;32.67;22.83;;;;;;;0.11;100.00;96150.63;1043171;28;20012;-67
2021/05/08 00:46:21;;;;;;;32.63;22.43;;;;;;;0.12;100.00;96146.25;1047023;28;20437;-69
2021/05/08 00:46:51;;;;;;;34.73;24.57;;;;;;;0.10;100.00;96143.88;1039641;28;20022;-71
2021/05/08 00:47:22;;;;;;;41.33;29.30;;;;;;;0.10;100.00;96151.63;1039044;28;20017;-69
2021/05/08 00:47:52;;;;;;;43.23;31.20;;;;;;;0.11;100.00;96144.66;1034641;28;20068;-70
2021/05/08 00:48:23;;;;;;;43.57;30.10;;;;;;;0.11;100.00;96147.25;1039141;28;20025;-69
2021/05/08 00:48:54;;;;;;;42.73;30.23;;;;;;;0.03;100.00;96132.69;1042797;28;20009;-70
2021/05/08 00:49:27;;;;;;;34.50;24.08;;;;;;;0.09;100.00;96149.22;1038600;28;20040;-70
2021/05/08 00:49:58;;;;;;;32.92;23.55;;;;;;;0.09;100.00;96142.25;1031082;28;20080;-71
2021/05/08 00:50:28;;;;;;;25.57;19.80;;;;;;;0.11;100.00;96145.47;1031132;28;20057;-70
2021/05/08 00:50:59;;;;;;;26.37;19.77;;;;;;;0.05;100.00;96141.03;1030622;28;20510;-69
2021/05/08 00:51:29;;;;;;;25.48;16.83;;;;;;;0.04;100.00;96143.81;1030331;28;20280;-70
2021/05/08 00:52:00;;;;;;;18.60;11.40;;;;;;;0.11;100.00;96150.63;1034526;28;20022;-66
2021/05/08 00:52:30;;;;;;;17.77;13.00;;;;;;;0.10;100.00;96149.03;1042777;28;20017;-69
2021/05/08 00:53:01;;;;;;;14.73;10.77;;;;;;;0.05;100.00;96141.03;1042788;28;20458;-69
2021/05/08 00:53:32;;;;;;;13.95;10.02;;;;;;;0.10;100.00;96143.88;1032551;28;20025;-71
2021/05/08 00:54:02;;;;;;;11.90;9.30;;;;;;;0.01;100.00;96134.66;1031063;28;20030;-69
2021/05/08 00:54:33;;;;;;;12.47;8.87;;;;;;;0.09;100.00;96144.84;1034785;28;20022;-69
2021/05/08 00:55:07;;;;;;;12.03;8.30;;;;;;;0.09;100.00;96144.84;1038105;28;20276;-68
2021/05/08 00:55:38;;;;;;;10.95;7.65;;;;;;;0.09;100.00;96146.63;1038637;28;20018;-69
2021/05/08 00:56:08;;;;;;;10.93;8.03;;;;;;;0.08;100.00;96145.03;1034658;28;20026;-69
2021/05/08 00:56:39;;;;;;;11.70;7.83;;;;;;;0.09;100.00;96146.63;1031251;28;20049;-70
2021/05/08 00:57:11;;;;;;;11.90;8.17;;;;;;;0.00;100.00;96140.81;1042056;28;20083;-69
2021/05/08 00:57:41;;;;;;;13.32;7.80;;;;;;;0.09;100.00;96155.16;1038836;28;20079;-70
2021/05/08 00:58:12;;;;;;;10.10;8.10;;;;;;;0.09;100.00;96146.63;1039128;28;20483;-68
2021/05/08 00:58:42;;;;;;;9.57;8.03;;;;;;;0.07;100.00;96136.50;1036235;28;20041;-70
2021/05/08 00:59:13;;;;;;;14.60;7.97;;;;;;;0.11;100.00;96149.84;1038785;28;20021;-71
2021/05/08 00:59:43;;;;;;;11.43;7.93;;;;;;;0.07;100.00;96144.25;1034737;28;20021;-69
2021/05/08 01:00:14;;;;;;;13.20;9.03;;;;;;;0.07;100.00;96149.41;1034424;28;20014;-69
2021/05/08 01:00:44;;;;;;;11.73;8.33;;;;;;;-0.03;100.00;96130.88;1038667;28;20130;-69
2021/05/08 01:01:18;;;;;;;12.17;8.23;;;;;;;0.06;100.00;96144.41;1034811;28;20025;-70
2021/05/08 01:01:48;;;;;;;13.02;8.50;;;;;;;0.04;100.00;96138.66;1038862;28;20036;-70
2021/05/08 01:02:19;;;;;;;12.73;8.63;;;;;;;0.01;100.00;96142.41;1042567;28;20036;-68
2021/05/08 01:02:49;;;;;;;14.23;8.73;;;;;;;0.01;100.00;96150.16;1043787;28;20021;-70
2021/05/08 01:03:23;;;;;;;13.10;8.80;;;;;;;-0.11;100.00;96126.63;1042745;28;20036;-69
2021/05/08 01:03:54;;;;;;;13.02;8.75;;;;;;;0.01;100.00;96149.34;1033975;28;20025;-69
2021/05/08 01:04:25;;;;;;;11.67;7.80;;;;;;;0.00;100.00;96143.41;1034665;28;20022;-70
2021/05/08 01:04:55;;;;;;;12.05;8.55;;;;;;;0.00;100.00;96140.81;1031408;28;20054;-70
2021/05/08 01:05:27;;;;;;;13.27;8.03;;;;;;;-0.07;100.00;96132.22;1033795;28;20078;-69
2021/05/08 01:05:58;;;;;;;14.43;9.07;;;;;;;-0.07;100.00;96127.03;1034842;28;20076;-69
2021/05/08 01:06:29;;;;;;;15.20;9.60;;;;;;;-0.03;100.00;96138.63;1034535;28;20080;-70
2021/05/08 01:06:59;;;;;;;15.33;9.70;;;;;;;-0.13;100.00;96133.75;1038727;28;20022;-66
2021/05/08 01:07:30;;;;;;;15.10;9.73;;;;;;;-0.06;100.00;96133.81;1038542;28;20021;-69
2021/05/08 01:08:01;;;;;;;12.83;9.10;;;;;;;-0.12;100.00;96124.25;1038637;28;20290;-69
2021/05/08 01:08:31;;;;;;;11.20;9.20;;;;;;;-0.06;100.00;96138.97;1038691;28;20021;-69
2021/05/08 01:09:02;;;;;;;12.63;9.10;;;;;;;-0.15;100.00;96124.59;1042109;28;20025;-69
2021/05/08 01:09:35;;;;;;;14.33;9.70;;;;;;;-0.17;100.00;96124.78;1028996;28;20197;-70
2021/05/08 01:10:07;;;;;;;11.93;9.05;;;;;;;-0.07;100.00;96139.94;1034776;28;20117;-70
2021/05/08 01:10:38;;;;;;;20.15;9.35;;;;;;;-0.09;100.00;96142.72;1032802;28;20108;-70
2021/05/08 01:11:08;;;;;;;11.10;8.77;;;;;;;-0.11;100.00;96141.31;1036080;28;20037;-70
2021/05/08 01:11:39;;;;;;;12.43;9.00;;;;;;;-0.10;100.00;96140.31;1034251;28;20040;-70
2021/05/08 01:12:09;;;;;;;12.63;9.07;;;;;;;-0.17;100.00;96132.50;1034593;28;20025;-71
2021/05/08 01:12:40;;;;;;;13.20;9.27;;;;;;;-0.13;100.00;96135.56;1035730;28;20204;-69
2021/05/08 01:13:10;;;;;;;14.20;8.67;;;;;;;-0.13;100.00;96135.56;1042906;28;20041;-70
2021/05/08 01:13:41;;;;;;;12.90;9.43;;;;;;;-0.15;100.00;96142.66;1046697;28;20114;-69
2021/05/08 01:14:11;;;;;;;11.93;8.90;;;;;;;-0.17;100.00;96134.31;1042743;28;20044;-68
2021/05/08 01:14:41;;;;;;;13.03;9.77;;;;;;;-0.14;100.00;96139.09;1042439;28;20028;-71
2021/05/08 01:15:13;;;;;;;12.97;9.60;;;;;;;-0.14;100.00;96141.66;1038223;28;20029;-68
2021/05/08 01:15:43;;;;;;;14.40;9.18;;;;;;;-0.15;100.00;96142.66;1040040;28;20016;-68
2021/05/08 01:16:17;;;;;;;11.10;8.77;;;;;;;-0.15;100.00;96140.88;1038807;28;20052;-69
2021/05/08 01:16:48;;;;;;;13.10;9.55;;;;;;;-0.17;100.00;96145.41;1035101;28;20092;-69
2021/05/08 01:17:18;;;;;;;11.33;8.60;;;;;;;-0.18;100.00;96141.25;1042124;28;20398;-68
2021/05/08 01:17:49;;;;;;;14.10;9.13;;;;;;;-0.16;100.00;96146.22;1042850;28;20024;-69
2021/05/08 01:18:19;;;;;;;12.40;8.83;;;;;;;-0.16;100.00;96153.97;1041388;28;20099;-70
2021/05/08 01:18:53;;;;;;;15.20;8.50;;;;;;;-0.16;100.00;96143.66;1046390;28;20016;-71
2021/05/08 01:19:23;;;;;;;13.60;9.57;;;;;;;-0.20;100.00;96140.66;1045927;28;20021;-70
2021/05/08 01:19:54;;;;;;;12.93;9.47;;;;;;;-0.17;100.00;96144.63;1046730;28;20032;-70
2021/05/08 01:20:24;;;;;;;11.40;9.03;;;;;;;-0.27;100.00;96132.84;1042771;28;20020;-69
2021/05/08 01:20:59;;;;;;;13.37;9.20;;;;;;;-0.22;100.00;96141.81;1034652;28;20030;-65
2021/05/08 01:21:30;;;;;;;13.75;8.73;;;;;;;-0.21;100.00;96145.97;1039298;28;20035;-69
2021/05/08 01:22:01;;;;;;;13.23;9.75;;;;;;;-0.31;100.00;96129.03;1038698;28;20033;-67
2021/05/08 01:22:31;;;;;;;12.23;9.33;;;;;;;-0.27;100.00;96138.00;1026653;28;20647;-69
2021/05/08 01:23:02;;;;;;;16.17;9.83;;;;;;;-0.33;100.00;96132.78;1034473;28;20045;-70
2021/05/08 01:23:33;;;;;;;13.48;10.05;;;;;;;-0.27;100.00;96143.16;1038930;28;20033;-69
2021/05/08 01:24:04;;;;;;;11.17;8.87;;;;;;;-0.28;100.00;96140.75;1043103;28;20033;-69
2021/05/08 01:24:34;;;;;;;20.05;10.25;;;;;;;-0.31;100.00;96141.91;1044929;28;20025;-69
2021/05/08 01:25:13;;;;;;;19.77;11.40;;;;;;;-0.33;100.00;96149.06;1038630;28;20506;-68
2021/05/08 01:25:43;;;;;;;14.93;10.20;;;;;;;-0.37;100.00;96140.09;1051091;28;20676;-70
2021/05/08 01:26:14;;;;;;;16.40;9.33;;;;;;;-0.35;100.00;96145.84;1041217;28;20040;-71
2021/05/08 01:26:44;;;;;;;14.43;10.37;;;;;;;-0.36;100.00;96144.25;1039887;28;20118;-68
2021/05/08 01:27:15;;;;;;;13.93;9.40;;;;;;;-0.40;100.00;96143.03;1040913;28;20509;-71
2021/05/08 01:28:06;;;;;;;12.93;9.45;;;;;;;-0.39;100.00;96143.84;1040199;28;20034;-68
2021/05/08 01:28:36;;;;;;;13.95;10.25;;;;;;;-0.36;100.00;96146.84;1042859;28;20028;-68
2021/05/08 01:29:12;;;;;;;16.13;10.37;;;;;;;-0.47;100.00;96131.84;1045916;28;20036;-71
2021/05/08 01:29:43;;;;;;;13.40;8.77;;;;;;;-0.46;100.00;96128.31;1036607;28;20030;-69
2021/05/08 01:30:18;;;;;;;12.23;8.17;;;;;;;-0.37;100.00;96141.84;1039059;28;20065;-69
2021/05/08 01:30:48;;;;;;;15.63;10.02;;;;;;;-0.37;100.00;96144.44;1043440;28;20028;-71
2021/05/08 01:31:18;;;;;;;13.77;9.27;;;;;;;-0.43;100.00;96133.09;1043629;28;20039;-70
2021/05/08 01:31:49;;;;;;;12.53;9.30;;;;;;;-0.36;100.00;96146.84;1043428;28;20028;-69
2021/05/08 01:32:19;;;;;;;13.03;9.17;;;;;;;-0.38;100.00;96145.41;1043309;28;20471;-70
2021/05/08 01:32:50;;;;;;;15.23;10.17;;;;;;;-0.38;100.00;96151.38;1039366;28;20033;-69
2021/05/08 01:33:21;;;;;;;15.37;10.13;;;;;;;-0.43;100.00;96140.81;1039330;28;20037;-68
2021/05/08 01:33:51;;;;;;;13.07;9.50;;;;;;;-0.41;100.00;96151.72;1039536;28;21030;-69
2021/05/08 01:34:22;;;;;;;12.67;9.80;;;;;;;-0.42;100.00;96150.16;1035849;28;20026;-71
2021/05/08 01:34:52;;;;;;;14.97;10.03;;;;;;;-0.41;100.00;96158.66;1039523;28;20046;-68
2021/05/08 01:35:23;;;;;;;14.53;9.97;;;;;;;-0.43;100.00;96145.97;1031098;28;20041;-69
2021/05/08 01:35:54;;;;;;;18.40;10.40;;;;;;;-0.42;100.00;96151.94;1027638;28;20027;-70
2021/05/08 01:36:25;;;;;;;14.45;10.00;;;;;;;-0.44;100.00;96149.50;1032057;28;20030;-67
2021/05/08 01:36:56;;;;;;;14.05;10.05;;;;;;;-0.43;100.00;96153.72;1035669;28;20129;-68
2021/05/08 01:37:26;;;;;;;16.10;10.27;;;;;;;-0.45;100.00;96149.72;1036131;28;20033;-71
2021/05/08 01:37:57;;;;;;;13.60;9.30;;;;;;;-0.42;100.00;96155.31;1035719;28;20036;-69
2021/05/08 01:38:27;;;;;;;14.67;10.30;;;;;;;-0.44;100.00;96151.31;1031434;28;20034;-69
2021/05/08 01:38:59;;;;;;;15.40;10.10;;;;;;;-0.45;100.00;96154.88;1039668;28;20071;-69
2021/05/08 01:39:30;;;;;;;12.98;9.88;;;;;;;-0.47;100.00;96152.47;1031609;28;20026;-69
2021/05/08 01:40:05;;;;;;;13.63;9.47;;;;;;;-0.49;100.00;96152.66;1034523;28;20030;-70
2021/05/08 01:40:37;;;;;;;14.52;10.15;;;;;;;-0.55;100.00;96145.66;1042067;28;20033;-68
2021/05/08 01:41:11;;;;;;;12.48;9.07;;;;;;;-0.50;100.00;96152.84;1037566;28;20485;-69
2021/05/08 01:41:43;;;;;;;13.40;9.85;;;;;;;-0.51;100.00;96149.44;1039710;28;20025;-69
2021/05/08 01:42:14;;;;;;;16.65;9.68;;;;;;;-0.53;100.00;96158.38;1039188;28;20547;-68
2021/05/08 01:42:47;;;;;;;13.23;9.70;;;;;;;-0.54;100.00;96157.56;1041191;28;20025;-70
2021/05/08 01:43:20;;;;;;;12.65;9.52;;;;;;;-0.62;100.00;96133.69;1049993;28;20036;-67
2021/05/08 01:43:51;;;;;;;15.57;10.60;;;;;;;-0.64;100.00;96141.56;1042345;28;20040;-69
2021/05/08 01:44:21;;;;;;;14.53;9.73;;;;;;;-0.64;100.00;96141.56;1031450;28;20541;-68
2021/05/08 01:44:52;;;;;;;15.13;9.10;;;;;;;-0.54;100.00;96156.75;1043121;28;20032;-70
2021/05/08 01:45:22;;;;;;;13.30;10.10;;;;;;;-0.56;100.00;96153.56;1038897;28;20033;-70
2021/05/08 01:45:53;;;;;;;13.97;9.97;;;;;;;-0.55;100.00;96144.84;1035438;28;20029;-68
2021/05/08 01:46:24;;;;;;;17.50;10.40;;;;;;;-0.54;100.00;96149.84;1035003;28;20883;-69
2021/05/08 01:46:54;;;;;;;15.70;10.13;;;;;;;-0.54;100.00;96147.25;1035185;28;20034;-70
2021/05/08 01:47:25;;;;;;;12.80;9.80;;;;;;;-0.50;100.00;96148.50;1037244;28;20107;-68
2021/05/08 01:47:55;;;;;;;15.67;10.77;;;;;;;-0.54;100.00;96136.97;1043197;28;20032;-69
2021/05/08 01:48:26;;;;;;;17.83;10.43;;;;;;;-0.50;100.00;96148.50;1039733;28;20578;-70
2021/05/08 01:48:57;;;;;;;14.85;9.85;;;;;;;-0.51;100.00;96146.06;1039229;28;20160;-70
2021/05/08 01:49:27;;;;;;;15.67;10.33;;;;;;;-0.52;100.00;96140.13;1039373;28;20018;-69
2021/05/08 01:49:58;;;;;;;16.17;10.40;;;;;;;-0.49;100.00;96149.28;1039932;28;20018;-70
2021/05/08 01:50:28;;;;;;;15.60;11.03;;;;;;;-0.50;100.00;96142.53;1045887;28;20020;-69
2021/05/08 01:50:59;;;;;;;16.20;10.63;;;;;;;-0.48;100.00;96145.72;1039304;28;20021;-68
2021/05/08 01:51:29;;;;;;;21.77;11.53;;;;;;;-0.49;100.00;96149.28;1039600;28;20029;-68
2021/05/08 01:52:00;;;;;;;16.63;10.60;;;;;;;-0.48;100.00;96145.72;1035351;28;20014;-70
2021/05/08 01:52:30;;;;;;;16.03;10.03;;;;;;;-0.48;100.00;96140.56;1039645;28;20014;-69
2021/05/08 01:53:01;;;;;;;16.47;10.90;;;;;;;-0.48;100.00;96140.56;1039398;28;20014;-69
2021/05/08 01:53:31;;;;;;;15.50;9.63;;;;;;;-0.48;100.00;96140.56;1035387;28;20014;-70
2021/05/08 01:54:02;;;;;;;15.07;10.10;;;;;;;-0.46;100.00;96143.78;1043549;28;20657;-67
2021/05/08 01:54:33;;;;;;;13.85;10.05;;;;;;;-0.52;100.00;96129.03;1045835;28;20020;-69
2021/05/08 01:55:08;;;;;;;14.80;10.40;;;;;;;-0.44;100.00;96136.63;1034870;28;20022;-68
2021/05/08 01:55:39;;;;;;;13.73;9.10;;;;;;;-0.42;100.00;96142.41;1036282;28;20414;-68
2021/05/08 01:56:09;;;;;;;11.57;9.03;;;;;;;-0.43;100.00;96135.66;1039405;28;20040;-66
2021/05/08 01:56:40;;;;;;;14.37;9.20;;;;;;;-0.44;100.00;96136.63;1039421;28;20021;-68
2021/05/08 01:57:10;;;;;;;14.40;9.37;;;;;;;-0.40;100.00;96142.22;1039758;28;20057;-71
2021/05/08 01:57:48;;;;;;;12.77;8.50;;;;;;;-0.42;100.00;96141.63;1034988;28;20434;-69
2021/05/08 01:58:19;;;;;;;14.50;9.38;;;;;;;-0.42;100.00;96145.00;1035478;28;20513;-66
2021/05/08 01:58:49;;;;;;;15.10;9.67;;;;;;;-0.43;100.00;96140.03;1032069;28;20033;-68
2021/05/08 01:59:19;;;;;;;16.20;9.87;;;;;;;-0.44;100.00;96136.63;1035169;28;20022;-68
2021/05/08 01:59:50;;;;;;;15.73;10.43;;;;;;;-0.43;100.00;96143.41;1039552;28;20018;-69
2021/05/08 02:00:25;;;;;;;13.17;9.33;;;;;;;-0.44;100.00;96139.22;1040200;28;20021;-68
2021/05/08 02:00:55;;;;;;;15.38;9.10;;;;;;;-0.44;100.00;96146.16;1043651;28;20036;-68
2021/05/08 02:01:26;;;;;;;11.67;9.07;;;;;;;-0.47;100.00;96144.72;1046903;28;20028;-69
2021/05/08 02:01:56;;;;;;;14.27;10.13;;;;;;;-0.51;100.00;96133.19;1043557;28;20021;-69
2021/05/08 02:02:29;;;;;;;12.70;9.32;;;;;;;-0.48;100.00;96137.97;1043672;28;20482;-68
2021/05/08 02:03:00;;;;;;;18.97;10.47;;;;;;;-0.47;100.00;96142.16;1047725;28;20024;-68
2021/05/08 02:03:31;;;;;;;14.00;9.50;;;;;;;-0.50;100.00;96138.19;1047496;28;20025;-69
2021/05/08 02:04:01;;;;;;;11.40;8.53;;;;;;;-0.49;100.00;96138.97;1042838;28;20681;-70
2021/05/08 02:04:32;;;;;;;16.37;8.93;;;;;;;-0.50;100.00;96138.19;1039306;28;20108;-69
2021/05/08 02:05:04;;;;;;;14.37;9.20;;;;;;;-0.49;100.00;96133.81;1034637;28;20030;-68
2021/05/08 02:05:36;;;;;;;11.77;7.88;;;;;;;-0.49;100.00;96144.13;1039505;28;20537;-70
2021/05/08 02:06:06;;;;;;;14.70;8.40;;;;;;;-0.46;100.00;96137.81;1035108;28;20069;-69
2021/05/08 02:06:37;;;;;;;10.33;7.80;;;;;;;-0.46;100.00;96143.78;1031789;28;20014;-69
2021/05/08 02:07:07;;;;;;;12.87;8.77;;;;;;;-0.46;100.00;96132.66;1035589;28;20388;-69
2021/05/08 02:07:38;;;;;;;14.43;8.47;;;;;;;-0.45;100.00;96132.47;1035085;28;20634;-70
2021/05/08 02:08:11;;;;;;;10.97;7.97;;;;;;;-0.43;100.00;96137.44;1043321;28;20025;-69
2021/05/08 02:08:43;;;;;;;13.20;8.85;;;;;;;-0.50;100.00;96125.28;1039877;28;20479;-70
2021/05/08 02:09:13;;;;;;;12.98;8.18;;;;;;;-0.45;100.00;96131.66;1033184;28;20014;-68
2021/05/08 02:09:44;;;;;;;11.97;9.10;;;;;;;-0.43;100.00;96137.44;1030247;28;20138;-69
2021/05/08 02:10:15;;;;;;;11.80;8.43;;;;;;;-0.54;100.00;96111.19;1027771;28;20037;-69
2021/05/08 02:10:45;;;;;;;12.27;8.93;;;;;;;-0.50;100.00;96121.94;1035692;28;20026;-68
2021/05/08 02:11:16;;;;;;;9.53;7.77;;;;;;;-0.45;100.00;96136.81;1039418;28;20129;-70
2021/05/08 02:11:46;;;;;;;11.90;7.90;;;;;;;-0.43;100.00;96135.66;1043334;28;20044;-69
2021/05/08 02:12:20;;;;;;;13.02;8.18;;;;;;;-0.43;100.00;96137.44;1031765;28;20027;-68
2021/05/08 02:12:53;;;;;;;11.13;7.97;;;;;;;-0.41;100.00;96131.09;1038807;28;20081;-69
2021/05/08 02:13:23;;;;;;;12.73;8.15;;;;;;;-0.42;100.00;96128.72;1039410;28;20060;-70
2021/05/08 02:13:54;;;;;;;11.73;7.93;;;;;;;-0.51;100.00;96115.16;1036499;28;20475;-69
2021/05/08 02:14:25;;;;;;;10.87;7.87;;;;;;;-0.53;100.00;96114.56;1035124;28;20018;-69
2021/05/08 02:14:55;;;;;;;14.87;8.83;;;;;;;-0.43;100.00;96127.94;1031164;28;20105;-69
2021/05/08 02:15:26;;;;;;;13.20;8.53;;;;;;;-0.52;100.00;96119.50;1030639;28;20034;-69
2021/05/08 02:15:56;;;;;;;14.47;8.93;;;;;;;-0.47;100.00;96131.84;1033583;28;20473;-70
2021/05/08 02:16:27;;;;;;;12.53;8.50;;;;;;;-0.49;100.00;96137.19;1040230;28;20026;-66
2021/05/08 02:16:57;;;;;;;10.60;8.37;;;;;;;-0.49;100.00;96129.47;1031024;28;20042;-68
2021/05/08 02:17:27;;;;;;;10.63;8.60;;;;;;;-0.51;100.00;96128.03;1035122;28;20033;-69
2021/05/08 02:17:58;;;;;;;12.43;8.63;;;;;;;-0.51;100.00;96126.25;1038132;28;20026;-70
2021/05/08 02:18:28;;;;;;;11.40;8.60;;;;;;;-0.51;100.00;96125.47;1035236;28;20636;-71
2021/05/08 02:18:59;;;;;;;11.80;8.37;;;;;;;-0.50;100.00;96127.06;1035449;28;20021;-70
2021/05/08 02:19:29;;;;;;;11.77;8.73;;;;;;;-0.50;100.00;96124.50;1037067;28;20022;-69
2021/05/08 02:20:00;;;;;;;10.53;8.30;;;;;;;-0.50;100.00;96122.72;1035505;28;20026;-69
2021/05/08 02:20:32;;;;;;;12.97;8.43;;;;;;;-0.50;100.00;96120.13;1035150;28;20080;-68
2021/05/08 02:21:02;;;;;;;11.57;8.18;;;;;;;-0.48;100.00;96127.66;1027291;28;20027;-69
2021/05/08 02:21:34;;;;;;;13.53;8.60;;;;;;;-0.52;100.00;96119.50;1043592;28;20040;-69
2021/05/08 02:22:05;;;;;;;11.77;8.43;;;;;;;-0.49;100.00;96123.50;1043528;28;20025;-69
2021/05/08 02:22:35;;;;;;;11.57;8.73;;;;;;;-0.53;100.00;96112.78;1039384;28;20083;-68
2021/05/08 02:23:10;;;;;;;11.60;8.20;;;;;;;-0.46;100.00;96122.34;1033876;28;20026;-69